Friday, November 24, 2017, 12:22 AM GMT
Back to Local

CYMX, Montreal / Mirabel

Location: , , Canada Lat: 45.683
Local Time: 12:22 AM GMT ( 0:22 GMT) Lon: -74.033
Time Zone: GMT Elev: 269 ft

Show me the last for .
Show Decoded

2017-11-24 00:00 METAR CYMX 240000Z 21003KT 20SM -SN BKN042 OVC110 M03/M05 A2989 RMK SC5AC3
                 SLP128 =
2017-11-23 23:20 METAR CYMX 232320Z 00000KT 20SM -SN OVC043 M03/M06 A2990 RMK SC8 SLP134 =
2017-11-23 23:00 METAR CYMX 232300Z 31002KT 25SM BKN038 BKN110 M03/M06 A2991 RMK SC5AC2 SLP135 =
2017-11-23 22:00 METAR CYMX 232200Z 20002KT 25SM SCT022 BKN040 M03/M06 A2991 RMK SC4SC2 SLP137 =
2017-11-23 21:00 METAR CYMX 232100Z 19003KT 25SM FEW020 SCT040 BKN100 M03/M07 A2993 RMK SC1SC3AC3
                 SLP142 =
2017-11-23 20:00 METAR CYMX 232000Z 22005KT 45SM BKN042 OVC120 M03/M08 A2995 RMK SC6AC2 SLP148 =
2017-11-23 19:00 METAR CYMX 231900Z 21005KT 45SM OVC031 M04/M08 A2997 RMK SC8 SLP155 =
2017-11-23 18:00 METAR CYMX 231800Z 23008KT 210V280 45SM FEW002 BKN040 BKN110 OVC180 M04/M09
                 A2999 RMK SC1SC4AC2AC1 SLP164 =
2017-11-23 17:00 METAR CYMX 231700Z 25011KT 220V280 45SM FEW022 SCT040 BKN110 BKN180 M04/M10
                 A3002 RMK SC1SC2AC2AC2 SLP171 =
2017-11-23 16:00 METAR CYMX 231600Z 22006KT 45SM FEW025 SCT130 BKN250 M05/M10 A3004 RMK SC1AC3CI4
                 SC TR SLP180 =
2017-11-23 15:00 METAR CYMX 231500Z 24007KT 45SM FEW030 BKN130 BKN240 M06/M10 A3009 RMK SC2AC3CI2
                 SLP196 =
2017-11-23 14:00 METAR CYMX 231400Z 25006KT 220V280 45SM FEW020 FEW150 SCT190 BKN260 M07/M10
                 A3011 RMK CU1AC1CI3CI3 CU TR AC TR SLP203 =
2017-11-23 13:00 METAR CYMX 231300Z 25003KT 210V310 45SM FEW025 FEW150 BKN260 M09/M11 A3011 RMK
                 SC1AC1CI6 SC TR AC TR SLP204 =
2017-11-23 12:00 METAR CYMX 231200Z 24003KT 25SM FEW025 FEW140 SCT280 M10/M12 A3013 RMK SC1AC1CI4
                 SC TR AC TR SLP209 =
2017-11-23 11:00 METAR CYMX 231100Z 26003KT 220V290 25SM FEW025 M10/M12 A3012 RMK SC1 SC TR
                 SLP206 =
2017-11-23 10:00 METAR CYMX 231000Z 26004KT 25SM SCT024 M10/M12 A3011 RMK SC4 SLP203 =
2017-11-23 09:00 METAR CYMX 230900Z 27004KT 240V320 25SM BKN024 M09/M12 A3010 RMK SC7 SLP201 =
2017-11-23 08:00 METAR CYMX 230800Z 28003KT 240V320 25SM BKN024 M07/M12 A3011 RMK SC7 SLP203 =
2017-11-23 07:00 METAR CYMX 230700Z 28004KT 230V320 25SM BKN025 M07/M12 A3010 RMK SC7 SLP199 =
2017-11-23 06:00 METAR CYMX 230600Z 28002KT 25SM SCT026 M07/M11 A3010 RMK SC4 SLP200 =
2017-11-23 05:00 METAR CYMX 230500Z 32003KT 240V350 25SM SCT027 M06/M11 A3011 RMK SC4 SLP202 =
2017-11-23 04:00 METAR CYMX 230400Z 29004KT 240V320 25SM SCT025 M07/M11 A3010 RMK SC4 SLP201 =
2017-11-23 03:00 METAR CYMX 230300Z 28005KT 250V320 25SM SCT025 M06/M10 A3010 RMK SC4 SLP198 =
2017-11-23 02:00 METAR CYMX 230200Z 29004KT 250V320 25SM SCT025 M06/M09 A3009 RMK SC3 SLP197 =
2017-11-23 01:00 METAR CYMX 230100Z 27005KT 230V330 25SM FEW022 SCT055 M05/M09 A3009 RMK SC1SC2
                 SLP195 =

Support USWX by starting your Amazon purchase here.